Time;durP1;ratioP1;P1;durP2;ratioP2;P2;SDS_P1;SDS_P2;PMS_P1;PMS_P2;Temp;Humidity;BMP_temperature;BMP_pressure;BME280_temperature;BME280_humidity;BME280_pressure;Samples;Min_cycle;Max_cycle;Signal;HPM_P1;HPM_P2
2022/04/21 00:01:16;;;;;;;9.40;3.55;;;;;;;;;;5283917;28;20040;-66
2022/04/21 00:03:47;;;;;;;6.05;3.33;;;;;;;;;;5282501;28;20016;-67
2022/04/21 00:06:18;;;;;;;5.90;2.90;;;;;;;;;;5283445;28;20593;-67
2022/04/21 00:08:50;;;;;;;6.95;3.28;;;;;;;;;;5282760;28;20122;-68
2022/04/21 00:11:21;;;;;;;4.97;3.40;;;;;;;;;;5283098;28;20274;-67
2022/04/21 00:13:52;;;;;;;5.22;3.30;;;;;;;;;;5283428;28;20045;-67
2022/04/21 00:16:23;;;;;;;4.07;2.92;;;;;;;;;;5281994;28;20645;-67
2022/04/21 00:18:54;;;;;;;6.07;2.65;;;;;;;;;;5283380;28;20354;-66
2022/04/21 00:23:25;;;;;;;5.50;3.55;;;;;;;;;;5282678;28;20275;-67
2022/04/21 00:24:17;;;;;;;8.27;3.20;;;;;;;;;;5282763;28;20725;-67
2022/04/21 00:26:48;;;;;;;5.45;3.58;;;;;;;;;;5282749;28;20024;-66
2022/04/21 00:29:19;;;;;;;5.32;3.28;;;;;;;;;;5283134;28;20302;-67
2022/04/21 00:31:50;;;;;;;8.60;3.30;;;;;;;;;;5282268;28;20032;-67
2022/04/21 00:34:22;;;;;;;8.07;3.05;;;;;;;;;;5282893;28;20756;-67
2022/04/21 00:36:53;;;;;;;6.95;3.15;;;;;;;;;;5282644;28;20089;-67
2022/04/21 00:39:24;;;;;;;6.00;2.97;;;;;;;;;;5282580;28;20024;-67
2022/04/21 00:41:56;;;;;;;8.50;3.08;;;;;;;;;;5283494;28;20277;-67
2022/04/21 00:44:28;;;;;;;7.30;3.13;;;;;;;;;;5281955;28;20025;-66
2022/04/21 00:47:01;;;;;;;3.38;2.55;;;;;;;;;;5283134;28;20017;-67
2022/04/21 00:49:33;;;;;;;4.00;2.70;;;;;;;;;;5282407;28;20378;-67
2022/04/21 00:52:04;;;;;;;4.55;3.10;;;;;;;;;;5282246;28;20020;-67
2022/04/21 00:54:35;;;;;;;5.07;2.70;;;;;;;;;;5282658;28;20055;-67
2022/04/21 00:57:07;;;;;;;6.05;2.90;;;;;;;;;;5283104;28;20024;-67
2022/04/21 00:59:38;;;;;;;5.03;3.05;;;;;;;;;;5281419;28;20099;-66
2022/04/21 01:04:59;;;;;;;6.90;2.90;;;;;;;;;;5282224;28;20037;-67
2022/04/21 01:07:32;;;;;;;7.05;3.33;;;;;;;;;;5282225;28;20028;-67
2022/04/21 01:10:03;;;;;;;5.50;2.67;;;;;;;;;;5282667;28;20032;-67
2022/04/21 01:12:34;;;;;;;5.55;3.17;;;;;;;;;;5281168;28;20017;-66
2022/04/21 01:15:06;;;;;;;4.80;3.05;;;;;;;;;;5282345;28;20483;-66
2022/04/21 01:17:37;;;;;;;6.10;3.53;;;;;;;;;;5281760;28;20024;-67
2022/04/21 01:20:09;;;;;;;5.28;3.80;;;;;;;;;;5281905;28;20467;-67
2022/04/21 01:22:40;;;;;;;6.40;2.75;;;;;;;;;;5281851;28;20046;-67
2022/04/21 01:25:11;;;;;;;6.03;3.20;;;;;;;;;;5282068;28;20535;-67
2022/04/21 01:27:43;;;;;;;8.13;3.33;;;;;;;;;;5281120;28;20320;-67
2022/04/21 01:30:15;;;;;;;7.35;2.72;;;;;;;;;;5282212;28;20120;-66
2022/04/21 01:32:48;;;;;;;6.10;3.20;;;;;;;;;;5281066;28;20023;-68
2022/04/21 01:35:19;;;;;;;6.70;2.97;;;;;;;;;;5281113;28;20386;-67
2022/04/21 01:43:30;;;;;;;7.82;2.80;;;;;;;;;;5281485;28;20032;-66
2022/04/21 01:46:01;;;;;;;5.57;2.60;;;;;;;;;;5281891;28;20033;-66
2022/04/21 01:48:33;;;;;;;5.20;2.42;;;;;;;;;;5280357;28;20267;-66
2022/04/21 01:51:04;;;;;;;8.23;3.08;;;;;;;;;;5281841;28;20036;-66
2022/04/21 01:53:35;;;;;;;3.53;2.53;;;;;;;;;;5281294;28;20380;-66
2022/04/21 01:56:07;;;;;;;4.13;3.15;;;;;;;;;;5281157;28;20696;-66
2022/04/21 01:58:38;;;;;;;5.57;2.88;;;;;;;;;;5281224;28;20044;-66
2022/04/21 02:01:09;;;;;;;5.95;2.92;;;;;;;;;;5281182;28;20020;-66
2022/04/21 02:03:41;;;;;;;11.40;3.67;;;;;;;;;;5281312;28;20052;-66
2022/04/21 02:06:12;;;;;;;5.38;2.95;;;;;;;;;;5281819;28;20032;-66
2022/04/21 02:08:45;;;;;;;5.53;2.60;;;;;;;;;;5280416;28;20092;-66
2022/04/21 02:11:16;;;;;;;8.15;3.28;;;;;;;;;;5281340;28;20017;-66
2022/04/21 02:13:47;;;;;;;6.00;2.67;;;;;;;;;;5280786;28;20515;-66
2022/04/21 02:16:18;;;;;;;4.70;3.28;;;;;;;;;;5280623;28;20029;-66
2022/04/21 02:18:50;;;;;;;8.30;3.25;;;;;;;;;;5281420;28;20262;-66
2022/04/21 02:21:21;;;;;;;4.07;2.80;;;;;;;;;;5280882;28;20266;-66
2022/04/21 02:23:53;;;;;;;6.03;3.38;;;;;;;;;;5280800;28;20020;-66
2022/04/21 02:26:24;;;;;;;5.80;3.22;;;;;;;;;;5281110;28;20282;-67
2022/04/21 02:28:55;;;;;;;6.68;2.90;;;;;;;;;;5281542;28;20043;-66
2022/04/21 02:31:26;;;;;;;5.90;3.42;;;;;;;;;;5280033;28;20306;-67
2022/04/21 02:33:57;;;;;;;6.63;3.92;;;;;;;;;;5281378;28;20032;-67
2022/04/21 02:36:28;;;;;;;6.57;3.38;;;;;;;;;;5280263;28;20622;-67
2022/04/21 02:38:59;;;;;;;5.60;3.80;;;;;;;;;;5281284;28;20028;-67
2022/04/21 02:41:30;;;;;;;7.70;3.58;;;;;;;;;;5280778;28;20750;-67
2022/04/21 02:44:02;;;;;;;4.70;3.40;;;;;;;;;;5280523;28;20074;-66
2022/04/21 02:46:33;;;;;;;6.30;3.45;;;;;;;;;;5284626;28;20271;-67
2022/04/21 02:49:05;;;;;;;5.55;3.10;;;;;;;;;;5285480;28;20043;-67
2022/04/21 02:51:36;;;;;;;5.88;2.97;;;;;;;;;;5284342;28;20017;-66
2022/04/21 02:59:48;;;;;;;8.55;3.45;;;;;;;;;;5284371;28;20036;-67
2022/04/21 03:02:19;;;;;;;4.85;2.72;;;;;;;;;;5284940;28;20441;-67
2022/04/21 03:04:52;;;;;;;7.38;3.25;;;;;;;;;;5284086;28;20050;-66
2022/04/21 03:07:23;;;;;;;6.93;3.60;;;;;;;;;;5284359;28;20028;-66
2022/04/21 03:09:54;;;;;;;4.80;2.90;;;;;;;;;;5284863;28;20036;-67
2022/04/21 03:12:28;;;;;;;6.38;2.97;;;;;;;;;;5283887;28;20455;-67
2022/04/21 03:15:01;;;;;;;5.38;3.20;;;;;;;;;;5284751;28;20045;-68
2022/04/21 03:17:32;;;;;;;5.30;2.83;;;;;;;;;;5284291;28;20495;-67
2022/04/21 03:20:03;;;;;;;7.40;3.03;;;;;;;;;;5266074;28;20099;-67
2022/04/21 03:25:30;;;;;;;4.80;2.95;;;;;;;;;;5284216;28;20037;-66
2022/04/21 03:28:04;;;;;;;9.00;3.42;;;;;;;;;;5284693;28;20368;-66
2022/04/21 03:30:35;;;;;;;13.13;4.18;;;;;;;;;;5283845;28;20138;-66
2022/04/21 03:33:06;;;;;;;8.02;3.53;;;;;;;;;;5283869;28;20459;-66
2022/04/21 03:35:37;;;;;;;6.55;3.85;;;;;;;;;;5284013;28;20408;-66
2022/04/21 03:38:08;;;;;;;7.15;4.22;;;;;;;;;;5284632;28;20023;-66
2022/04/21 03:40:40;;;;;;;7.18;4.32;;;;;;;;;;5282984;28;20282;-67
2022/04/21 03:43:12;;;;;;;9.70;3.90;;;;;;;;;;5284514;28;20271;-66
2022/04/21 03:45:43;;;;;;;8.63;4.10;;;;;;;;;;5283929;28;20012;-67
2022/04/21 03:48:14;;;;;;;8.30;3.72;;;;;;;;;;5283365;28;20024;-66
2022/04/21 03:50:46;;;;;;;7.56;3.34;;;;;;;;;;5283995;28;20638;-66
2022/04/21 03:53:17;;;;;;;7.62;4.52;;;;;;;;;;5283817;28;20400;-66
2022/04/21 03:55:48;;;;;;;5.55;4.20;;;;;;;;;;5282076;28;20025;-66
2022/04/21 03:58:19;;;;;;;7.18;4.00;;;;;;;;;;5283444;28;20274;-66
2022/04/21 04:00:50;;;;;;;8.43;3.72;;;;;;;;;;5282887;28;20080;-66
2022/04/21 04:03:21;;;;;;;6.35;3.85;;;;;;;;;;5283046;28;20340;-66
2022/04/21 04:05:52;;;;;;;6.35;3.60;;;;;;;;;;5283745;28;20263;-67
2022/04/21 04:11:13;;;;;;;9.80;3.90;;;;;;;;;;5283952;28;20045;-66
2022/04/21 04:13:45;;;;;;;6.00;3.12;;;;;;;;;;5282808;28;20060;-66
2022/04/21 04:16:19;;;;;;;9.93;3.25;;;;;;;;;;5282826;28;20097;-66
2022/04/21 04:18:51;;;;;;;5.05;3.28;;;;;;;;;;5283519;28;20263;-66
2022/04/21 04:21:22;;;;;;;7.10;3.78;;;;;;;;;;5283124;28;20051;-66
2022/04/21 04:23:53;;;;;;;6.07;3.45;;;;;;;;;;5282596;28;20027;-66
2022/04/21 04:26:24;;;;;;;6.30;3.40;;;;;;;;;;5282870;28;20274;-66
2022/04/21 04:28:55;;;;;;;6.92;4.00;;;;;;;;;;5282423;28;20456;-66
2022/04/21 04:31:26;;;;;;;5.43;4.38;;;;;;;;;;5282778;28;20074;-66
2022/04/21 04:33:58;;;;;;;7.52;4.22;;;;;;;;;;5283204;28;20270;-66
2022/04/21 04:36:29;;;;;;;8.75;4.25;;;;;;;;;;5281832;28;20012;-65
2022/04/21 04:39:00;;;;;;;7.85;4.03;;;;;;;;;;5282997;28;20435;-65
2022/04/21 04:44:21;;;;;;;7.15;4.07;;;;;;;;;;5281871;28;20274;-66
2022/04/21 04:46:52;;;;;;;8.57;4.10;;;;;;;;;;5283165;28;20344;-66
2022/04/21 04:49:24;;;;;;;10.20;4.38;;;;;;;;;;5282271;28;20032;-66
2022/04/21 04:51:55;;;;;;;8.80;3.92;;;;;;;;;;5282587;28;20362;-66
2022/04/21 04:54:28;;;;;;;11.93;3.95;;;;;;;;;;5282805;28;20024;-67
2022/04/21 04:56:59;;;;;;;7.47;4.32;;;;;;;;;;5282569;28;20624;-67
2022/04/21 04:59:30;;;;;;;9.02;4.22;;;;;;;;;;5282242;28;20028;-67
2022/04/21 05:02:01;;;;;;;18.85;4.47;;;;;;;;;;5282788;28;20012;-66
2022/04/21 05:04:32;;;;;;;6.53;3.70;;;;;;;;;;5281521;28;20041;-66
2022/04/21 05:07:05;;;;;;;10.07;4.32;;;;;;;;;;5282915;28;20451;-66
2022/04/21 05:09:36;;;;;;;5.95;4.40;;;;;;;;;;5281334;28;20352;-67
2022/04/21 05:12:07;;;;;;;7.80;4.22;;;;;;;;;;5282223;28;20025;-66
2022/04/21 05:14:39;;;;;;;9.70;4.25;;;;;;;;;;5281849;28;20048;-66
2022/04/21 05:17:10;;;;;;;9.50;4.97;;;;;;;;;;5282593;28;20067;-66
2022/04/21 05:19:41;;;;;;;11.25;4.40;;;;;;;;;;5281399;28;20617;-66
2022/04/21 05:22:13;;;;;;;14.05;4.68;;;;;;;;;;5282595;28;20032;-66
2022/04/21 05:24:51;;;;;;;15.98;4.30;;;;;;;;;;5281889;28;20081;-66
2022/04/21 05:27:22;;;;;;;7.53;4.45;;;;;;;;;;5281257;28;20431;-66
2022/04/21 05:32:45;;;;;;;7.47;4.20;;;;;;;;;;5280719;28;20025;-66
2022/04/21 05:35:16;;;;;;;13.88;5.43;;;;;;;;;;5281507;28;20547;-66
2022/04/21 05:37:47;;;;;;;9.80;4.30;;;;;;;;;;5281209;28;20104;-66
2022/04/21 05:40:19;;;;;;;6.80;4.07;;;;;;;;;;5280771;28;20403;-66
2022/04/21 05:42:51;;;;;;;9.32;3.85;;;;;;;;;;5281451;28;20059;-66
2022/04/21 05:45:22;;;;;;;9.07;4.53;;;;;;;;;;5281619;28;20394;-66
2022/04/21 05:47:53;;;;;;;8.23;4.40;;;;;;;;;;5281344;28;20078;-66
2022/04/21 05:50:25;;;;;;;7.68;4.18;;;;;;;;;;5281449;28;20478;-66
2022/04/21 05:53:01;;;;;;;5.70;4.03;;;;;;;;;;5282179;28;20048;-66
2022/04/21 05:55:35;;;;;;;5.72;4.05;;;;;;;;;;5280476;28;20035;-66
2022/04/21 05:58:06;;;;;;;10.80;4.65;;;;;;;;;;5281673;28;20100;-66
2022/04/21 06:00:38;;;;;;;7.97;4.20;;;;;;;;;;5280233;28;20486;-66
2022/04/21 06:03:11;;;;;;;12.07;4.40;;;;;;;;;;5281908;28;20020;-66
2022/04/21 06:05:42;;;;;;;9.15;4.82;;;;;;;;;;5281180;28;20017;-66
2022/04/21 06:08:13;;;;;;;7.32;3.88;;;;;;;;;;5280637;28;20038;-66
2022/04/21 06:10:44;;;;;;;9.02;4.25;;;;;;;;;;5280960;28;20036;-66
2022/04/21 06:13:15;;;;;;;6.65;4.13;;;;;;;;;;5281881;28;20695;-66
2022/04/21 06:15:46;;;;;;;8.77;4.70;;;;;;;;;;5280130;28;20049;-66
2022/04/21 06:18:18;;;;;;;8.50;5.57;;;;;;;;;;5281360;28;20029;-66
2022/04/21 06:20:50;;;;;;;10.48;5.65;;;;;;;;;;5281219;28;20698;-66
2022/04/21 06:23:21;;;;;;;7.75;5.05;;;;;;;;;;5280135;28;20029;-65
2022/04/21 06:25:58;;;;;;;9.20;5.07;;;;;;;;;;5282012;28;20020;-66
2022/04/21 06:28:29;;;;;;;7.13;5.00;;;;;;;;;;5280481;28;20027;-67
2022/04/21 06:31:00;;;;;;;9.80;5.18;;;;;;;;;;5281384;28;20037;-67
2022/04/21 06:33:32;;;;;;;8.65;4.45;;;;;;;;;;5280975;28;20737;-67
2022/04/21 06:36:05;;;;;;;9.00;4.30;;;;;;;;;;5281241;28;20048;-67
2022/04/21 06:38:36;;;;;;;7.20;4.82;;;;;;;;;;5280909;28;20013;-67
2022/04/21 06:41:07;;;;;;;7.02;4.32;;;;;;;;;;5281689;28;20029;-66
2022/04/21 06:49:18;;;;;;;9.25;4.63;;;;;;;;;;5280969;28;20467;-66
2022/04/21 06:51:50;;;;;;;5.68;3.75;;;;;;;;;;5280188;28;20029;-67
2022/04/21 06:54:21;;;;;;;7.65;4.53;;;;;;;;;;5280724;28;20420;-66
2022/04/21 06:56:53;;;;;;;9.70;4.00;;;;;;;;;;5280434;28;20289;-67
2022/04/21 06:59:24;;;;;;;7.93;3.75;;;;;;;;;;5280585;28;20020;-67
2022/04/21 07:01:55;;;;;;;9.85;4.07;;;;;;;;;;5281270;28;20031;-66
2022/04/21 07:04:27;;;;;;;6.80;3.45;;;;;;;;;;5279807;28;20247;-67
2022/04/21 07:06:58;;;;;;;7.03;4.70;;;;;;;;;;5280822;28;20271;-68
2022/04/21 07:09:30;;;;;;;7.57;3.87;;;;;;;;;;5280216;28;20467;-67
2022/04/21 07:12:01;;;;;;;8.40;3.67;;;;;;;;;;5280298;28;20690;-68
2022/04/21 07:14:33;;;;;;;11.13;3.65;;;;;;;;;;5279602;28;20044;-68
2022/04/21 07:17:04;;;;;;;8.90;4.03;;;;;;;;;;5280308;28;20063;-67
2022/04/21 07:19:35;;;;;;;8.90;3.10;;;;;;;;;;5279346;28;20746;-67
2022/04/21 07:22:06;;;;;;;7.60;3.83;;;;;;;;;;5280648;28;20013;-68
2022/04/21 07:24:37;;;;;;;5.78;3.88;;;;;;;;;;5279530;28;20754;-66
2022/04/21 07:27:08;;;;;;;5.85;3.75;;;;;;;;;;5280711;28;20389;-66
2022/04/21 07:29:40;;;;;;;8.73;3.58;;;;;;;;;;5280135;28;20039;-68
2022/04/21 07:32:11;;;;;;;4.57;3.25;;;;;;;;;;5281706;28;20267;-68
2022/04/21 07:34:42;;;;;;;5.85;3.53;;;;;;;;;;5283929;28;20491;-67
2022/04/21 07:37:13;;;;;;;5.40;3.40;;;;;;;;;;5284422;28;20055;-67
2022/04/21 07:39:45;;;;;;;5.28;3.40;;;;;;;;;;5282667;28;20021;-66
2022/04/21 07:42:16;;;;;;;7.05;3.53;;;;;;;;;;5284168;28;20463;-66
2022/04/21 07:44:47;;;;;;;9.02;3.40;;;;;;;;;;5283750;28;20032;-66
2022/04/21 07:47:19;;;;;;;6.97;2.97;;;;;;;;;;5283368;28;20012;-67
2022/04/21 07:49:50;;;;;;;9.93;3.65;;;;;;;;;;5283715;28;20286;-66
2022/04/21 07:55:19;;;;;;;9.25;3.50;;;;;;;;;;5284479;28;20025;-66
2022/04/21 07:57:55;;;;;;;6.75;3.80;;;;;;;;;;5283920;28;20134;-66
2022/04/21 08:00:26;;;;;;;11.65;3.72;;;;;;;;;;5282692;28;20044;-66
2022/04/21 08:02:57;;;;;;;9.10;3.47;;;;;;;;;;5283652;28;20059;-66
2022/04/21 08:05:28;;;;;;;7.65;3.05;;;;;;;;;;5283227;28;20460;-66
2022/04/21 08:08:00;;;;;;;10.15;3.10;;;;;;;;;;5283288;28;20467;-66
2022/04/21 08:10:31;;;;;;;9.45;3.88;;;;;;;;;;5283231;28;20036;-66
2022/04/21 08:13:02;;;;;;;5.70;3.22;;;;;;;;;;5284119;28;20013;-66
2022/04/21 08:15:34;;;;;;;5.82;2.38;;;;;;;;;;5282484;28;20052;-66
2022/04/21 08:18:07;;;;;;;6.03;3.03;;;;;;;;;;5284247;28;20521;-66
2022/04/21 08:20:39;;;;;;;5.15;2.85;;;;;;;;;;5283521;28;20548;-66
2022/04/21 08:23:11;;;;;;;6.80;2.30;;;;;;;;;;5283233;28;20146;-66
2022/04/21 08:34:12;;;;;;;5.55;2.63;;;;;;;;;;5283501;28;20028;-66
2022/04/21 08:36:43;;;;;;;7.95;2.47;;;;;;;;;;5282215;28;20095;-66
2022/04/21 08:39:14;;;;;;;7.47;3.00;;;;;;;;;;5283747;28;20352;-66
2022/04/21 08:41:51;;;;;;;8.57;2.63;;;;;;;;;;5283129;28;20009;-67
2022/04/21 08:44:22;;;;;;;12.80;2.75;;;;;;;;;;5282122;28;20803;-67
2022/04/21 08:46:55;;;;;;;5.75;2.28;;;;;;;;;;5283333;28;20040;-67
2022/04/21 08:49:30;;;;;;;5.72;2.08;;;;;;;;;;5281889;28;20776;-67
2022/04/21 08:52:01;;;;;;;5.05;2.42;;;;;;;;;;5283094;28;20021;-67
2022/04/21 08:54:33;;;;;;;7.50;3.17;;;;;;;;;;5282456;28;20537;-66
2022/04/21 08:57:04;;;;;;;6.20;3.00;;;;;;;;;;5282367;28;20016;-66
2022/04/21 08:59:36;;;;;;;9.95;2.80;;;;;;;;;;5282520;28;20027;-68
2022/04/21 09:02:07;;;;;;;6.37;2.57;;;;;;;;;;5283103;28;20012;-68
2022/04/21 09:04:38;;;;;;;6.68;2.28;;;;;;;;;;5281713;28;20267;-68
2022/04/21 09:07:13;;;;;;;6.40;2.17;;;;;;;;;;5283091;28;20066;-68
2022/04/21 09:09:59;;;;;;;5.05;2.10;;;;;;;;;;5282220;28;20464;-67
2022/04/21 09:12:30;;;;;;;7.45;1.83;;;;;;;;;;5263076;28;20021;-67
2022/04/21 09:15:06;;;;;;;8.35;2.35;;;;;;;;;;5270342;28;20503;-67
2022/04/21 09:17:57;;;;;;;6.55;1.80;;;;;;;;;;5272024;28;20062;-68
2022/04/21 09:20:31;;;;;;;4.78;1.40;;;;;;;;;;5280495;28;20507;-67
2022/04/21 09:23:04;;;;;;;3.92;1.73;;;;;;;;;;5282031;28;20056;-67
2022/04/21 09:25:46;;;;;;;8.65;1.95;;;;;;;;;;5280415;28;20024;-68
2022/04/21 09:28:21;;;;;;;2.53;1.08;;;;;;;;;;5282717;28;20043;-68
2022/04/21 09:30:54;;;;;;;2.67;1.08;;;;;;;;;;5282082;28;20036;-68
2022/04/21 09:33:29;;;;;;;4.47;1.23;;;;;;;;;;5281583;28;20021;-68
2022/04/21 09:36:02;;;;;;;3.00;1.00;;;;;;;;;;5282433;28;20021;-67
2022/04/21 09:38:37;;;;;;;2.03;0.88;;;;;;;;;;5280437;28;20461;-68
2022/04/21 09:41:10;;;;;;;5.43;1.15;;;;;;;;;;5282305;28;20017;-68
2022/04/21 09:43:42;;;;;;;5.88;1.17;;;;;;;;;;5282115;28;20390;-68
2022/04/21 09:46:17;;;;;;;2.80;0.90;;;;;;;;;;5281581;28;20024;-68
2022/04/21 09:48:52;;;;;;;4.70;1.83;;;;;;;;;;5281758;28;20470;-68
2022/04/21 09:51:25;;;;;;;3.53;1.23;;;;;;;;;;5281400;28;20029;-65
2022/04/21 09:54:00;;;;;;;4.50;1.25;;;;;;;;;;5280471;28;20017;-66
2022/04/21 09:56:32;;;;;;;6.20;1.27;;;;;;;;;;5281607;28;20494;-67
2022/04/21 09:59:04;;;;;;;4.22;0.98;;;;;;;;;;5282195;28;20013;-67
2022/04/21 10:01:38;;;;;;;5.10;0.80;;;;;;;;;;5280819;28;20040;-67
2022/04/21 10:04:11;;;;;;;4.05;0.98;;;;;;;;;;5281838;28;20016;-67
2022/04/21 10:06:42;;;;;;;3.65;0.90;;;;;;;;;;5280644;28;20463;-67
2022/04/21 10:09:16;;;;;;;3.85;1.00;;;;;;;;;;5281984;28;20024;-66
2022/04/21 10:11:47;;;;;;;5.55;0.80;;;;;;;;;;5281375;28;20467;-67
2022/04/21 10:14:19;;;;;;;2.85;1.10;;;;;;;;;;5280738;28;20052;-67
2022/04/21 10:16:51;;;;;;;1.95;0.70;;;;;;;;;;5281343;28;20019;-67
2022/04/21 10:19:23;;;;;;;3.80;0.70;;;;;;;;;;5281477;28;20040;-67
2022/04/21 10:22:01;;;;;;;1.92;0.60;;;;;;;;;;5281066;28;20039;-67
2022/04/21 10:24:34;;;;;;;;;;;;;;;;;;5281773;28;20467;-67
2022/04/21 10:27:25;;;;;;;5.47;1.05;;;;;;;;;;5281565;28;20412;-67
2022/04/21 10:29:57;;;;;;;2.92;1.05;;;;;;;;;;5281066;28;20032;-67
2022/04/21 10:32:46;;;;;;;3.25;0.73;;;;;;;;;;5281430;28;20021;-67
2022/04/21 10:35:18;;;;;;;2.00;0.70;;;;;;;;;;5280755;28;20012;-67
2022/04/21 10:38:08;;;;;;;2.40;0.75;;;;;;;;;;5281645;28;20028;-67
2022/04/21 10:40:56;;;;;;;1.88;0.77;;;;;;;;;;5281210;28;20067;-67
2022/04/21 10:43:46;;;;;;;3.60;0.70;;;;;;;;;;5280689;28;20018;-67
2022/04/21 10:46:18;;;;;;;6.20;1.38;;;;;;;;;;5281843;28;20680;-67
2022/04/21 10:48:49;;;;;;;2.90;0.60;;;;;;;;;;5280649;28;20013;-66
2022/04/21 10:51:39;;;;;;;2.23;0.63;;;;;;;;;;5281227;28;20040;-67
2022/04/21 10:57:13;;;;;;;3.13;0.50;;;;;;;;;;5249473;28;20115;-67
2022/04/21 10:59:48;;;;;;;3.60;0.70;;;;;;;;;;5280973;28;20028;-66
2022/04/21 11:02:19;;;;;;;2.72;0.50;;;;;;;;;;5281039;28;20032;-67
2022/04/21 11:04:56;;;;;;;2.43;0.50;;;;;;;;;;5280271;28;20036;-67
2022/04/21 11:07:47;;;;;;;2.20;0.50;;;;;;;;;;5285035;28;20274;-66
2022/04/21 11:10:36;;;;;;;1.95;0.50;;;;;;;;;;5284243;28;20032;-67
2022/04/21 11:13:08;;;;;;;5.72;0.60;;;;;;;;;;5285370;28;20032;-67
2022/04/21 11:15:46;;;;;;;4.75;0.50;;;;;;;;;;5284654;28;20427;-66
2022/04/21 11:18:21;;;;;;;3.10;0.50;;;;;;;;;;5283992;28;20024;-68
2022/04/21 11:21:12;;;;;;;2.78;0.40;;;;;;;;;;5285143;28;20043;-65
2022/04/21 11:23:43;;;;;;;2.50;0.40;;;;;;;;;;5283310;28;20031;-66
2022/04/21 11:26:15;;;;;;;5.32;0.50;;;;;;;;;;5284971;28;20383;-66
2022/04/21 11:28:46;;;;;;;2.28;0.50;;;;;;;;;;5284049;28;20020;-65
2022/04/21 11:31:21;;;;;;;2.17;0.50;;;;;;;;;;5283872;28;20519;-66
2022/04/21 11:33:52;;;;;;;3.35;0.52;;;;;;;;;;5284684;28;20630;-66
2022/04/21 11:36:32;;;;;;;1.60;0.45;;;;;;;;;;5284408;28;20020;-66
2022/04/21 11:39:07;;;;;;;3.95;0.63;;;;;;;;;;5283697;28;20073;-66
2022/04/21 11:41:47;;;;;;;2.33;0.47;;;;;;;;;;5283773;28;20417;-66
2022/04/21 11:44:26;;;;;;;4.78;0.57;;;;;;;;;;5283682;28;20043;-68
2022/04/21 11:46:57;;;;;;;5.95;0.60;;;;;;;;;;5284032;28;20025;-66
2022/04/21 11:49:28;;;;;;;4.03;0.70;;;;;;;;;;5283968;28;20115;-66
2022/04/21 11:51:59;;;;;;;1.60;0.50;;;;;;;;;;5283784;28;20324;-69
2022/04/21 11:54:31;;;;;;;1.90;0.50;;;;;;;;;;5283785;28;20532;-67
2022/04/21 11:57:02;;;;;;;2.72;0.50;;;;;;;;;;5284382;28;20107;-67
2022/04/21 11:59:36;;;;;;;5.22;0.55;;;;;;;;;;5281792;28;20028;-67
2022/04/21 12:07:48;;;;;;;3.92;0.60;;;;;;;;;;5282398;28;20479;-67
2022/04/21 12:10:19;;;;;;;2.25;0.70;;;;;;;;;;5283528;28;20052;-67
2022/04/21 12:12:50;;;;;;;3.97;0.70;;;;;;;;;;5283370;28;20051;-67
2022/04/21 12:15:28;;;;;;;7.57;0.67;;;;;;;;;;5282590;28;20063;-67
2022/04/21 12:18:00;;;;;;;4.93;0.60;;;;;;;;;;5283424;28;20358;-67
2022/04/21 12:20:31;;;;;;;2.78;0.88;;;;;;;;;;5282444;28;20115;-67
2022/04/21 12:23:03;;;;;;;4.43;0.50;;;;;;;;;;5283892;28;20017;-67
2022/04/21 12:25:34;;;;;;;2.47;0.70;;;;;;;;;;5282927;28;20265;-67
2022/04/21 12:28:05;;;;;;;2.60;0.50;;;;;;;;;;5283285;28;20016;-67
2022/04/21 12:30:39;;;;;;;4.78;0.57;;;;;;;;;;5282989;28;20060;-67
2022/04/21 12:33:10;;;;;;;3.92;0.68;;;;;;;;;;5283781;28;20078;-67
2022/04/21 12:35:46;;;;;;;4.43;0.40;;;;;;;;;;5282104;28;20032;-67
2022/04/21 12:41:07;;;;;;;3.35;0.52;;;;;;;;;;5282706;28;20044;-67
2022/04/21 12:43:38;;;;;;;1.92;0.50;;;;;;;;;;5282907;28;20012;-67
2022/04/21 12:46:09;;;;;;;2.13;0.50;;;;;;;;;;5283331;28;20452;-67
2022/04/21 12:48:50;;;;;;;2.90;0.60;;;;;;;;;;5282052;28;20028;-67
2022/04/21 12:51:22;;;;;;;7.38;0.60;;;;;;;;;;5282809;28;20356;-67
2022/04/21 12:53:57;;;;;;;5.47;0.60;;;;;;;;;;5283407;28;20024;-66
2022/04/21 12:56:33;;;;;;;6.93;0.70;;;;;;;;;;5282019;28;20028;-67
2022/04/21 12:59:04;;;;;;;2.92;0.60;;;;;;;;;;5283343;28;20384;-67
2022/04/21 13:01:36;;;;;;;3.77;0.60;;;;;;;;;;5282733;28;20085;-67
2022/04/21 13:04:08;;;;;;;1.63;0.63;;;;;;;;;;5282564;28;20298;-67
2022/04/21 13:06:42;;;;;;;3.65;0.70;;;;;;;;;;5282570;28;20285;-67
2022/04/21 13:09:13;;;;;;;4.05;0.60;;;;;;;;;;5282071;28;20017;-67
2022/04/21 13:11:44;;;;;;;2.60;0.70;;;;;;;;;;5282162;28;20029;-67
2022/04/21 13:14:16;;;;;;;6.50;0.70;;;;;;;;;;5282615;28;20360;-67
2022/04/21 13:16:47;;;;;;;4.70;0.70;;;;;;;;;;5281632;28;20024;-67
2022/04/21 13:19:18;;;;;;;1.55;0.55;;;;;;;;;;5282755;28;20019;-66
2022/04/21 13:21:52;;;;;;;1.75;0.85;;;;;;;;;;5282581;28;20021;-67
2022/04/21 13:24:27;;;;;;;2.95;0.65;;;;;;;;;;5281470;28;20267;-66
2022/04/21 13:26:59;;;;;;;4.85;0.68;;;;;;;;;;5282741;28;20059;-67
2022/04/21 13:29:30;;;;;;;3.65;0.80;;;;;;;;;;5281160;28;20035;-67
2022/04/21 13:34:51;;;;;;;6.22;0.80;;;;;;;;;;5282889;28;20020;-67
2022/04/21 13:37:22;;;;;;;7.68;0.95;;;;;;;;;;5281525;28;20115;-67
2022/04/21 13:39:53;;;;;;;4.10;1.10;;;;;;;;;;5282402;28;20095;-67
2022/04/21 13:42:25;;;;;;;7.80;0.90;;;;;;;;;;5281629;28;20699;-67
2022/04/21 13:44:56;;;;;;;4.37;1.27;;;;;;;;;;5281144;28;20020;-67
2022/04/21 13:47:28;;;;;;;2.42;1.17;;;;;;;;;;5281167;28;20274;-67
2022/04/21 13:49:59;;;;;;;5.75;1.00;;;;;;;;;;5282143;28;20494;-67
2022/04/21 13:52:30;;;;;;;5.53;0.90;;;;;;;;;;5280731;28;20031;-67
2022/04/21 13:55:01;;;;;;;4.07;1.02;;;;;;;;;;5282024;28;20025;-67
2022/04/21 13:57:32;;;;;;;4.88;0.93;;;;;;;;;;5281312;28;20024;-67
2022/04/21 14:00:05;;;;;;;4.40;1.20;;;;;;;;;;5281464;28;20701;-67
2022/04/21 14:02:36;;;;;;;2.42;1.10;;;;;;;;;;5281565;28;20305;-67
2022/04/21 14:05:07;;;;;;;5.93;1.17;;;;;;;;;;5282051;28;20024;-66
2022/04/21 14:07:39;;;;;;;4.47;1.10;;;;;;;;;;5280395;28;20294;-67
2022/04/21 14:10:10;;;;;;;9.57;1.15;;;;;;;;;;5281686;28;20036;-66
2022/04/21 14:12:41;;;;;;;8.85;2.30;;;;;;;;;;5280293;28;20420;-67
2022/04/21 14:15:12;;;;;;;8.35;1.40;;;;;;;;;;5281580;28;20052;-67
2022/04/21 14:17:44;;;;;;;5.38;1.83;;;;;;;;;;5281178;28;20286;-67
2022/04/21 14:20:16;;;;;;;6.22;1.73;;;;;;;;;;5280701;28;20025;-67
2022/04/21 14:22:47;;;;;;;8.57;1.50;;;;;;;;;;5281061;28;20024;-67
2022/04/21 14:25:19;;;;;;;4.75;1.65;;;;;;;;;;5281463;28;20702;-66
2022/04/21 14:27:50;;;;;;;6.50;2.05;;;;;;;;;;5280489;28;20460;-66
2022/04/21 14:30:21;;;;;;;13.18;2.33;;;;;;;;;;5280632;28;20040;-66
2022/04/21 14:32:54;;;;;;;3.65;1.80;;;;;;;;;;5281392;28;20365;-66
2022/04/21 14:35:25;;;;;;;6.50;1.83;;;;;;;;;;5279894;28;20091;-66
2022/04/21 14:46:26;;;;;;;9.68;1.75;;;;;;;;;;5285407;28;20032;-66
2022/04/21 14:48:58;;;;;;;6.28;1.80;;;;;;;;;;5285071;28;20032;-66
2022/04/21 14:51:29;;;;;;;3.33;1.73;;;;;;;;;;5285033;28;20119;-66
2022/04/21 14:54:00;;;;;;;5.35;2.03;;;;;;;;;;5285812;28;20081;-66
2022/04/21 14:56:33;;;;;;;6.60;1.67;;;;;;;;;;5284431;28;20028;-67
2022/04/21 14:59:05;;;;;;;6.25;2.00;;;;;;;;;;5285595;28;20020;-66
2022/04/21 15:01:37;;;;;;;5.75;1.75;;;;;;;;;;5284653;28;20013;-67
2022/04/21 15:04:09;;;;;;;4.57;1.60;;;;;;;;;;5284437;28;20467;-67
2022/04/21 15:06:43;;;;;;;8.10;1.60;;;;;;;;;;5284868;28;20030;-67
2022/04/21 15:09:14;;;;;;;5.78;1.67;;;;;;;;;;5284311;28;20267;-67
2022/04/21 15:11:48;;;;;;;9.32;2.58;;;;;;;;;;5284466;28;20020;-67
2022/04/21 15:14:19;;;;;;;4.22;1.33;;;;;;;;;;5284587;28;20098;-67
2022/04/21 15:16:52;;;;;;;5.20;1.20;;;;;;;;;;5284276;28;20017;-67
2022/04/21 15:19:24;;;;;;;5.20;1.17;;;;;;;;;;5283339;28;20020;-67
2022/04/21 15:21:55;;;;;;;8.15;1.27;;;;;;;;;;5285133;28;20497;-67
2022/04/21 15:24:29;;;;;;;5.72;1.80;;;;;;;;;;5283282;28;20008;-67
2022/04/21 15:27:01;;;;;;;4.82;1.52;;;;;;;;;;5284760;28;20416;-67
2022/04/21 15:29:32;;;;;;;8.43;1.30;;;;;;;;;;5284235;28;20052;-67
2022/04/21 15:32:04;;;;;;;6.28;1.60;;;;;;;;;;5279947;28;20017;-67
2022/04/21 15:34:35;;;;;;;6.75;1.33;;;;;;;;;;5283678;28;20490;-66
2022/04/21 15:37:07;;;;;;;10.73;1.60;;;;;;;;;;5283271;28;20017;-66
2022/04/21 15:39:38;;;;;;;3.13;1.80;;;;;;;;;;5283223;28;20271;-66
2022/04/21 15:42:09;;;;;;;10.98;2.17;;;;;;;;;;5284228;28;20305;-66
2022/04/21 15:44:40;;;;;;;8.25;1.67;;;;;;;;;;5283133;28;20062;-65
2022/04/21 15:47:11;;;;;;;6.35;1.48;;;;;;;;;;5284015;28;20066;-66
2022/04/21 15:49:43;;;;;;;6.20;1.10;;;;;;;;;;5283170;28;20025;-67
2022/04/21 15:52:14;;;;;;;13.82;1.50;;;;;;;;;;5282146;28;20078;-65
2022/04/21 16:00:25;;;;;;;8.48;1.45;;;;;;;;;;5282919;28;20028;-65
2022/04/21 16:02:57;;;;;;;3.72;1.67;;;;;;;;;;5284107;28;20012;-67
2022/04/21 16:05:30;;;;;;;4.25;1.40;;;;;;;;;;5282663;28;20271;-67
2022/04/21 16:08:01;;;;;;;6.30;1.48;;;;;;;;;;5284346;28;20044;-67
2022/04/21 16:10:33;;;;;;;5.47;1.15;;;;;;;;;;5283392;28;20068;-67
2022/04/21 16:13:05;;;;;;;4.70;1.75;;;;;;;;;;5283175;28;20074;-68
2022/04/21 16:15:36;;;;;;;5.63;1.45;;;;;;;;;;5283272;28;20106;-67
2022/04/21 16:18:07;;;;;;;7.50;2.00;;;;;;;;;;5284078;28;20009;-67
2022/04/21 16:20:38;;;;;;;4.28;1.75;;;;;;;;;;5282621;28;20063;-67
2022/04/21 16:23:10;;;;;;;8.18;2.38;;;;;;;;;;5283707;28;20255;-67
2022/04/21 16:25:42;;;;;;;5.15;2.00;;;;;;;;;;5283017;28;20025;-66